createdAt,value
2018-12-08T00:04:52.610Z,65.00
2018-12-08T00:20:52.683Z,64.90
2018-12-08T00:25:57.225Z,64.80
2018-12-08T00:31:12.152Z,64.70
2018-12-08T00:36:16.024Z,64.70
2018-12-08T00:41:20.250Z,64.40
2018-12-08T00:46:24.194Z,64.50
2018-12-08T00:51:28.643Z,64.50
2018-12-08T00:56:33.108Z,64.40
2018-12-08T01:01:37.969Z,64.30
2018-12-08T01:06:41.933Z,64.30
2018-12-08T01:11:46.730Z,64.30
2018-12-08T01:16:50.284Z,64.30
2018-12-08T01:21:53.836Z,64.20
2018-12-08T01:26:57.476Z,64.00
2018-12-08T01:32:01.159Z,64.00
2018-12-08T01:37:04.878Z,64.00
2018-12-08T01:42:09.140Z,63.90
2018-12-08T01:47:18.935Z,63.90
2018-12-08T01:52:22.886Z,63.70
2018-12-08T01:57:26.828Z,63.80
2018-12-08T02:02:30.930Z,63.80
2018-12-08T02:07:35.758Z,63.70
2018-12-08T02:12:39.879Z,63.70
2018-12-08T02:17:43.890Z,63.70
2018-12-08T02:22:47.726Z,63.80
2018-12-08T02:27:51.949Z,63.80
2018-12-08T02:32:55.541Z,63.60
2018-12-08T02:37:59.116Z,63.40
2018-12-08T02:43:03.802Z,63.70
2018-12-08T02:48:07.425Z,63.60
2018-12-08T02:53:11.056Z,63.60
2018-12-08T02:58:16.040Z,63.70
2018-12-08T03:03:19.952Z,64.30
2018-12-08T03:08:24.132Z,63.60
2018-12-08T03:13:28.535Z,63.70
2018-12-08T03:18:32.665Z,63.60
2018-12-08T03:23:36.545Z,63.50
2018-12-08T03:28:40.713Z,63.40
2018-12-08T03:33:44.545Z,63.40
2018-12-08T03:49:44.512Z,63.60
2018-12-08T03:54:48.585Z,63.40
2018-12-08T03:59:52.236Z,64.20
2018-12-08T04:04:56.209Z,63.40
2018-12-08T04:10:00.777Z,63.40
2018-12-08T04:15:05.897Z,63.50
2018-12-08T04:20:10.467Z,63.60
2018-12-08T04:25:15.197Z,63.60
2018-12-08T04:30:18.921Z,63.60
2018-12-08T04:35:23.251Z,63.60
2018-12-08T04:40:27.263Z,63.50
2018-12-08T04:45:30.971Z,63.40
2018-12-08T04:50:35.368Z,63.50
2018-12-08T04:55:38.952Z,63.50
2018-12-08T05:00:42.840Z,63.50
2018-12-08T05:05:46.361Z,63.60
2018-12-08T05:10:50.032Z,63.50
2018-12-08T05:15:54.264Z,63.60
2018-12-08T05:20:58.065Z,63.50
2018-12-08T05:26:01.603Z,63.40
2018-12-08T05:31:05.850Z,63.40
2018-12-08T05:36:10.574Z,63.50
2018-12-08T05:41:24.375Z,63.50
2018-12-08T05:46:28.718Z,63.60
2018-12-08T05:57:10.085Z,63.60
2018-12-08T06:02:14.353Z,63.60
2018-12-08T06:07:31.290Z,63.60
2018-12-08T06:18:09.339Z,63.70
2018-12-08T06:23:15.063Z,63.80
2018-12-08T06:28:28.131Z,63.80
2018-12-08T06:44:47.676Z,63.90
2018-12-08T07:17:11.071Z,63.70
2018-12-08T07:22:15.031Z,63.40
2018-12-08T07:27:19.905Z,63.60
2018-12-08T07:32:24.595Z,63.60
2018-12-08T07:37:28.440Z,63.60
2018-12-08T07:42:32.024Z,63.70
2018-12-08T07:47:35.643Z,63.80
2018-12-08T07:52:39.246Z,63.90
2018-12-08T07:57:42.894Z,64.10
2018-12-08T08:02:47.566Z,64.20
2018-12-08T08:07:51.147Z,64.40
2018-12-08T08:12:54.910Z,64.10
2018-12-08T08:17:58.493Z,64.20
2018-12-08T08:23:16.208Z,64.20
2018-12-08T08:28:19.898Z,64.20
2018-12-08T08:33:23.421Z,64.40
2018-12-08T08:38:28.402Z,64.20
2018-12-08T08:48:59.971Z,64.30
2018-12-08T08:54:04.525Z,63.60
2018-12-08T08:59:08.345Z,64.20
2018-12-08T09:04:13.236Z,64.20
2018-12-08T09:09:17.733Z,64.30
2018-12-08T09:14:21.646Z,64.40
2018-12-08T09:19:25.541Z,64.40
2018-12-08T09:24:29.896Z,64.30
2018-12-08T09:29:34.036Z,64.40
2018-12-08T09:34:38.702Z,64.50
2018-12-08T09:39:42.980Z,64.60
2018-12-08T09:44:47.304Z,64.70
2018-12-08T09:49:51.611Z,64.60
2018-12-08T09:54:55.843Z,64.70
2018-12-08T10:00:00.713Z,64.70
2018-12-08T10:05:04.543Z,64.90
2018-12-08T10:10:08.658Z,65.00
2018-12-08T10:15:12.280Z,65.00
2018-12-08T10:20:16.332Z,65.10
2018-12-08T10:25:19.952Z,65.10
2018-12-08T10:30:23.876Z,65.10
2018-12-08T10:35:27.679Z,65.20
2018-12-08T10:40:31.331Z,65.20
2018-12-08T10:45:35.600Z,65.20
2018-12-08T10:50:39.203Z,65.20
2018-12-08T10:55:42.899Z,65.30
2018-12-08T11:00:51.737Z,65.50
2018-12-08T11:05:55.367Z,65.50
2018-12-08T11:10:59.336Z,65.70
2018-12-08T11:16:02.934Z,65.60
2018-12-08T11:21:07.936Z,65.70
2018-12-08T11:26:11.863Z,65.80
2018-12-08T11:31:15.411Z,65.80
2018-12-08T11:36:19.840Z,65.80
2018-12-08T11:41:23.356Z,65.80
2018-12-08T11:46:27.893Z,65.70
2018-12-08T11:51:32.608Z,66.00
2018-12-08T11:56:36.273Z,65.80
2018-12-08T12:01:39.857Z,65.80
2018-12-08T12:06:44.216Z,65.80
2018-12-08T12:11:47.765Z,65.70
2018-12-08T12:16:51.284Z,65.70
2018-12-08T12:21:54.807Z,64.50
2018-12-08T12:26:58.398Z,64.50
2018-12-08T12:32:05.025Z,64.50
2018-12-08T12:37:09.167Z,64.50
2018-12-08T12:42:13.409Z,64.50
2018-12-08T13:03:40.643Z,64.20
2018-12-08T13:08:44.599Z,64.20
2018-12-08T13:13:49.317Z,64.20
2018-12-08T13:18:53.531Z,64.20
2018-12-08T13:23:57.040Z,64.30
2018-12-08T13:29:01.829Z,64.50
2018-12-08T13:34:16.686Z,64.60
2018-12-08T13:39:20.529Z,64.60
2018-12-08T13:44:35.776Z,64.80
2018-12-08T13:49:39.637Z,64.50
2018-12-08T13:54:52.395Z,64.50
2018-12-08T13:59:57.690Z,64.40
2018-12-08T14:05:01.539Z,64.40
2018-12-08T14:10:07.040Z,64.50
2018-12-08T14:15:10.863Z,64.40
2018-12-08T14:20:23.755Z,64.30
2018-12-08T14:30:55.444Z,64.10
2018-12-08T14:35:59.717Z,64.00
2018-12-08T14:41:03.275Z,64.00
2018-12-08T14:46:07.155Z,64.00
2018-12-08T14:51:11.190Z,64.20
2018-12-08T14:56:15.615Z,64.30
2018-12-08T15:01:19.237Z,64.40
2018-12-08T15:06:23.445Z,64.40
2018-12-08T15:16:55.062Z,64.40
2018-12-08T15:21:58.674Z,64.30
2018-12-08T15:27:03.207Z,64.20
2018-12-08T15:32:07.050Z,64.10
2018-12-08T15:37:11.344Z,64.20
2018-12-08T15:42:15.004Z,64.00
2018-12-08T15:47:18.643Z,64.00
2018-12-08T15:52:22.994Z,63.90
2018-12-08T15:57:27.987Z,63.90
2018-12-08T16:02:32.107Z,63.70
2018-12-08T16:07:36.387Z,63.60
2018-12-08T16:12:39.987Z,63.70
2018-12-08T16:17:57.982Z,63.60
2018-12-08T16:23:01.514Z,63.60
2018-12-08T16:28:09.714Z,63.70
2018-12-08T16:33:13.970Z,63.60
2018-12-08T16:38:17.927Z,63.50
2018-12-08T16:43:22.201Z,63.50
2018-12-08T16:48:26.402Z,63.50
2018-12-08T16:59:02.709Z,63.40
2018-12-08T17:04:06.436Z,63.40
2018-12-08T17:09:11.095Z,63.30
2018-12-08T17:14:14.725Z,63.40
2018-12-08T17:24:56.998Z,63.30
2018-12-08T17:30:01.012Z,63.30
2018-12-08T17:35:05.960Z,63.50
2018-12-08T17:40:10.153Z,63.60
2018-12-08T17:45:13.893Z,63.70
2018-12-08T17:50:17.730Z,63.70
2018-12-08T17:55:23.082Z,63.70
2018-12-08T18:00:26.679Z,63.90
2018-12-08T18:05:30.801Z,64.00
2018-12-08T18:10:34.437Z,64.20
2018-12-08T18:26:39.526Z,64.70
2018-12-08T18:31:43.167Z,64.90
2018-12-08T18:36:46.775Z,65.00
2018-12-08T18:41:50.349Z,65.00
2018-12-08T18:46:57.603Z,65.20
2018-12-08T18:52:01.384Z,65.10
2018-12-08T19:02:41.652Z,65.20
2018-12-08T19:07:46.031Z,65.10
2018-12-08T19:12:52.375Z,65.30
2018-12-08T19:17:55.971Z,65.30
2018-12-08T19:23:02.154Z,65.50
2018-12-08T19:28:20.018Z,65.50
2018-12-08T19:33:24.281Z,65.50
2018-12-08T19:43:55.824Z,65.70
2018-12-08T19:49:05.595Z,65.70
2018-12-08T20:32:24.452Z,66.10
2018-12-08T20:37:29.028Z,66.20
2018-12-08T20:42:33.064Z,65.60
2018-12-08T20:47:36.772Z,66.20
2018-12-08T20:52:40.669Z,67.10
2018-12-08T20:57:45.019Z,66.40
2018-12-08T21:02:49.279Z,66.20
2018-12-08T21:07:53.832Z,66.20
2018-12-08T21:12:58.919Z,66.30
2018-12-08T21:18:02.848Z,66.30
2018-12-08T21:23:08.316Z,66.30
2018-12-08T21:28:12.021Z,66.30
2018-12-08T21:33:16.325Z,66.20
2018-12-08T21:38:20.599Z,66.20
2018-12-08T21:43:25.065Z,66.30
2018-12-08T21:48:29.085Z,66.10
2018-12-08T21:53:35.454Z,66.10
2018-12-08T21:58:40.287Z,66.10
2018-12-08T22:03:44.335Z,66.10
2018-12-08T22:08:48.012Z,66.00
2018-12-08T22:13:51.740Z,66.00
2018-12-08T22:29:53.414Z,66.10
2018-12-08T22:34:57.529Z,65.90
2018-12-08T22:40:01.488Z,66.00
2018-12-08T22:45:06.757Z,66.00
2018-12-08T22:50:10.774Z,66.00
2018-12-08T22:55:14.673Z,66.00
2018-12-08T23:00:29.673Z,65.90
2018-12-08T23:05:33.237Z,66.00
2018-12-08T23:10:37.185Z,65.90
2018-12-08T23:15:40.788Z,66.00
2018-12-08T23:20:44.336Z,66.10
2018-12-08T23:25:47.949Z,66.00
2018-12-08T23:30:52.382Z,66.00
2018-12-08T23:35:56.542Z,65.80
2018-12-08T23:41:00.466Z,65.70
2018-12-08T23:46:04.176Z,65.60
2018-12-08T23:51:07.887Z,65.50
2018-12-08T23:56:12.229Z,66.10
